Time,TemperatureF,DewpointF,PressureIn,WindDirection,WindDirectionDegrees,WindSpeedMPH,WindSpeedGustMPH,Humidity,HourlyPrecipIn,Conditions,Clouds,dailyrainin,SolarRadiationWatts/m^2,SoftwareType,DateUTC
2013-08-20 00:00:00,59.6,59.0,30.05,SSW,211,0.0,2.0,96,0.00,,,0.00,0,weatherlink.com 1.10,2013-08-19 22:00:00,
2013-08-20 00:15:00,59.5,58.0,30.05,SSW,195,0.0,3.0,96,0.00,,,0.00,0,weatherlink.com 1.10,2013-08-19 22:15:00,
2013-08-20 00:30:00,59.5,58.0,30.05,SW,219,0.0,3.0,96,0.00,,,0.00,0,weatherlink.com 1.10,2013-08-19 22:30:00,
2013-08-20 00:45:00,59.5,58.0,30.06,SW,215,1.0,3.0,96,0.00,,,0.00,0,weatherlink.com 1.10,2013-08-19 22:45:00,
2013-08-20 01:00:00,59.4,58.0,30.06,ESE,115,0.0,2.0,96,0.00,,,0.00,0,weatherlink.com 1.10,2013-08-19 23:00:00,
2013-08-20 01:15:00,59.4,58.0,30.07,SW,229,1.0,3.0,96,0.00,,,0.00,0,weatherlink.com 1.10,2013-08-19 23:15:00,
2013-08-20 01:30:00,59.3,58.0,30.07,WSW,238,0.0,3.0,96,0.00,,,0.00,0,weatherlink.com 1.10,2013-08-19 23:30:00,
2013-08-20 01:45:00,59.2,58.0,30.07,SW,225,0.0,2.0,96,0.00,,,0.00,0,weatherlink.com 1.10,2013-08-19 23:45:00,
2013-08-20 02:00:00,59.0,58.0,30.07,SSW,211,0.0,3.0,95,0.00,,,0.00,0,weatherlink.com 1.10,2013-08-20 00:00:00,
2013-08-20 02:15:00,58.7,58.0,30.07,South,180,0.0,4.0,96,0.00,,,0.00,0,weatherlink.com 1.10,2013-08-20 00:15:00,
2013-08-20 02:30:00,58.4,57.0,30.07,WSW,240,0.0,4.0,96,0.00,,,0.00,0,weatherlink.com 1.10,2013-08-20 00:30:00,
2013-08-20 02:45:00,58.2,57.0,30.08,SW,225,0.0,3.0,96,0.00,,,0.00,0,weatherlink.com 1.10,2013-08-20 00:45:00,
2013-08-20 03:00:00,58.2,57.0,30.08,WSW,238,0.0,5.0,96,0.00,,,0.00,0,weatherlink.com 1.10,2013-08-20 01:00:00,
2013-08-20 03:15:00,58.1,57.0,30.09,WSW,246,0.0,2.0,96,0.00,,,0.00,0,weatherlink.com 1.10,2013-08-20 01:15:00,
2013-08-20 03:30:00,57.9,57.0,30.09,WSW,238,0.0,1.0,96,0.00,,,0.00,0,weatherlink.com 1.10,2013-08-20 01:30:00,
2013-08-20 03:45:00,57.6,57.0,30.09,WSW,238,0.0,0.0,96,0.00,,,0.00,0,weatherlink.com 1.10,2013-08-20 01:45:00,
2013-08-20 04:00:00,57.3,56.0,30.09,WSW,238,0.0,0.0,96,0.00,,,0.00,0,weatherlink.com 1.10,2013-08-20 02:00:00,
2013-08-20 04:15:00,57.2,56.0,30.09,WNW,292,0.0,1.0,96,0.00,,,0.00,0,weatherlink.com 1.10,2013-08-20 02:15:00,
2013-08-20 04:30:00,57.2,56.0,30.10,WNW,302,0.0,2.0,96,0.00,,,0.00,0,weatherlink.com 1.10,2013-08-20 02:30:00,
2013-08-20 04:45:00,57.0,56.0,30.11,West,271,0.0,1.0,96,0.00,,,0.00,0,weatherlink.com 1.10,2013-08-20 02:45:00,
2013-08-20 05:00:00,56.9,56.0,30.11,SW,219,0.0,1.0,96,0.00,,,0.00,0,weatherlink.com 1.10,2013-08-20 03:00:00,
2013-08-20 05:15:00,56.8,56.0,30.11,SW,224,0.0,1.0,96,0.00,,,0.00,0,weatherlink.com 1.10,2013-08-20 03:15:00,
2013-08-20 05:30:00,56.8,56.0,30.12,ESE,112,0.0,1.0,97,0.00,,,0.00,0,weatherlink.com 1.10,2013-08-20 03:30:00,
2013-08-20 05:45:00,56.7,56.0,30.12,ESE,118,0.0,0.0,96,0.00,,,0.00,0,weatherlink.com 1.10,2013-08-20 03:45:00,
2013-08-20 06:00:00,56.5,55.0,30.12,ESE,117,0.0,0.0,96,0.00,,,0.00,0,weatherlink.com 1.10,2013-08-20 04:00:00,
2013-08-20 06:15:00,56.6,56.0,30.13,SW,231,0.0,0.0,97,0.00,,,0.00,0,weatherlink.com 1.10,2013-08-20 04:15:00,
2013-08-20 06:30:00,56.2,55.0,30.13,NNW,327,0.0,1.0,96,0.01,,,0.01,12,weatherlink.com 1.10,2013-08-20 04:30:00,
2013-08-20 06:45:00,56.0,55.0,30.14,NNW,327,0.0,0.0,96,0.01,,,0.01,21,weatherlink.com 1.10,2013-08-20 04:45:00,
2013-08-20 07:00:00,56.0,55.0,30.15,SW,233,0.0,1.0,96,0.01,,,0.01,26,weatherlink.com 1.10,2013-08-20 05:00:00,
2013-08-20 07:15:00,56.0,55.0,30.15,WSW,240,0.0,2.0,96,0.01,,,0.01,28,weatherlink.com 1.10,2013-08-20 05:15:00,
2013-08-20 07:30:00,56.2,55.0,30.15,SSW,198,0.0,2.0,96,0.00,,,0.01,39,weatherlink.com 1.10,2013-08-20 05:30:00,
2013-08-20 07:45:00,56.4,55.0,30.15,SW,231,1.0,4.0,96,0.00,,,0.01,69,weatherlink.com 1.10,2013-08-20 05:45:00,
2013-08-20 08:01:00,56.5,55.0,30.16,WNW,295,0.0,2.0,94,0.00,,,0.01,81,weatherlink.com 1.10,2013-08-20 06:01:00,
2013-08-20 08:16:00,56.7,55.0,30.16,SSW,203,0.0,3.0,94,0.00,,,0.01,105,weatherlink.com 1.10,2013-08-20 06:16:00,
2013-08-20 08:31:00,57.0,55.0,30.17,SSW,196,0.0,3.0,93,0.00,,,0.01,109,weatherlink.com 1.10,2013-08-20 06:31:00,
2013-08-20 08:46:00,57.2,55.0,30.17,SW,234,0.0,3.0,93,0.00,,,0.01,70,weatherlink.com 1.10,2013-08-20 06:46:00,
2013-08-20 09:01:00,57.4,55.0,30.18,South,191,0.0,2.0,93,0.00,,,0.01,62,weatherlink.com 1.10,2013-08-20 07:01:00,
2013-08-20 09:16:00,57.5,56.0,30.18,WSW,243,3.0,3.0,93,0.00,,,0.01,121,weatherlink.com 1.10,2013-08-20 07:16:00,
2013-08-20 09:31:00,57.8,56.0,30.18,WSW,258,0.0,2.0,92,0.00,,,0.01,67,weatherlink.com 1.10,2013-08-20 07:31:00,
2013-08-20 09:46:00,57.9,56.0,30.19,West,279,0.0,2.0,92,0.00,,,0.01,116,weatherlink.com 1.10,2013-08-20 07:46:00,
2013-08-20 10:01:00,58.1,56.0,30.20,SSW,206,0.0,3.0,91,0.00,,,0.01,60,weatherlink.com 1.10,2013-08-20 08:01:00,
2013-08-20 10:16:00,58.1,56.0,30.20,SW,232,0.0,2.0,92,0.00,,,0.01,35,weatherlink.com 1.10,2013-08-20 08:16:00,
2013-08-20 10:31:00,58.0,56.0,30.21,WNW,298,0.0,3.0,92,0.00,,,0.01,42,weatherlink.com 1.10,2013-08-20 08:31:00,
2013-08-20 10:47:00,57.5,56.0,30.21,ESE,115,0.0,2.0,93,0.00,,,0.01,97,weatherlink.com 1.10,2013-08-20 08:47:00,
2013-08-20 11:01:00,57.3,55.0,30.22,ESE,123,0.0,4.0,92,0.00,,,0.01,81,weatherlink.com 1.10,2013-08-20 09:01:00,
2013-08-20 11:16:00,57.4,55.0,30.22,WSW,238,0.0,2.0,90,0.00,,,0.01,104,weatherlink.com 1.10,2013-08-20 09:16:00,
2013-08-20 11:31:00,57.7,55.0,30.23,South,188,0.0,1.0,89,0.00,,,0.01,123,weatherlink.com 1.10,2013-08-20 09:31:00,
2013-08-20 11:46:00,58.1,55.0,30.23,ENE,78,0.0,2.0,88,0.00,,,0.01,142,weatherlink.com 1.10,2013-08-20 09:46:00,
2013-08-20 12:01:00,58.1,54.0,30.24,NW,315,0.0,1.0,87,0.00,,,0.01,153,weatherlink.com 1.10,2013-08-20 10:01:00,
2013-08-20 12:16:00,59.1,56.0,30.24,WNW,302,0.0,2.0,88,0.00,,,0.01,213,weatherlink.com 1.10,2013-08-20 10:16:00,
2013-08-20 12:31:00,59.4,55.0,30.24,North,5,0.0,4.0,85,0.00,,,0.01,193,weatherlink.com 1.10,2013-08-20 10:31:00,
2013-08-20 12:46:00,59.6,55.0,30.24,East,96,0.0,3.0,84,0.00,,,0.01,190,weatherlink.com 1.10,2013-08-20 10:46:00,
2013-08-20 13:01:00,60.3,56.0,30.25,SE,130,0.0,1.0,84,0.00,,,0.01,207,weatherlink.com 1.10,2013-08-20 11:01:00,
2013-08-20 13:16:00,60.7,55.0,30.25,NW,313,0.0,1.0,82,0.00,,,0.01,139,weatherlink.com 1.10,2013-08-20 11:16:00,
2013-08-20 13:31:00,60.7,55.0,30.25,West,260,0.0,2.0,81,0.00,,,0.01,153,weatherlink.com 1.10,2013-08-20 11:31:00,
2013-08-20 13:46:00,60.9,55.0,30.25,North,350,0.0,1.0,81,0.00,,,0.01,197,weatherlink.com 1.10,2013-08-20 11:46:00,
2013-08-20 14:01:00,61.4,55.0,30.25,NE,36,0.0,2.0,79,0.00,,,0.01,169,weatherlink.com 1.10,2013-08-20 12:01:00,
2013-08-20 14:16:00,62.3,56.0,30.25,NW,316,0.0,1.0,80,0.00,,,0.01,213,weatherlink.com 1.10,2013-08-20 12:16:00,
2013-08-20 14:32:00,63.6,57.0,30.25,WSW,252,0.0,2.0,79,0.00,,,0.01,283,weatherlink.com 1.10,2013-08-20 12:32:00,
2013-08-20 14:47:00,64.4,57.0,30.25,SSW,196,0.0,1.0,77,0.00,,,0.01,178,weatherlink.com 1.10,2013-08-20 12:47:00,
2013-08-20 15:02:00,64.0,55.0,30.25,North,355,0.0,1.0,73,0.00,,,0.01,69,weatherlink.com 1.10,2013-08-20 13:02:00,
2013-08-20 15:17:00,63.4,55.0,30.25,ENE,74,0.0,1.0,73,0.00,,,0.01,144,weatherlink.com 1.10,2013-08-20 13:17:00,
2013-08-20 15:32:00,64.1,56.0,30.25,East,84,0.0,0.0,74,0.00,,,0.01,295,weatherlink.com 1.10,2013-08-20 13:32:00,
2013-08-20 15:47:00,64.6,55.0,30.25,East,84,0.0,0.0,72,0.00,,,0.01,172,weatherlink.com 1.10,2013-08-20 13:47:00,
2013-08-20 16:02:00,64.7,56.0,30.25,East,84,0.0,0.0,74,0.00,,,0.01,153,weatherlink.com 1.10,2013-08-20 14:02:00,
2013-08-20 16:17:00,65.5,58.0,30.25,South,180,1.0,1.0,76,0.00,,,0.01,118,weatherlink.com 1.10,2013-08-20 14:17:00,
2013-08-20 16:32:00,66.4,54.0,30.25,SW,221,0.0,0.0,65,0.00,,,0.01,65,weatherlink.com 1.10,2013-08-20 14:32:00,
2013-08-20 16:55:00,64.8,54.0,30.25,SSW,208,0.0,1.0,68,0.00,,,0.01,132,weatherlink.com 1.10,2013-08-20 14:55:00,
2013-08-20 17:01:00,64.8,54.0,30.26,SW,223,0.0,1.0,67,0.00,,,0.01,98,weatherlink.com 1.10,2013-08-20 15:01:00,
2013-08-20 17:16:00,64.5,53.0,30.26,NW,325,0.0,1.0,66,0.00,,,0.01,98,weatherlink.com 1.10,2013-08-20 15:16:00,
2013-08-20 17:31:00,64.1,53.0,30.26,ENE,63,0.0,1.0,67,0.00,,,0.01,62,weatherlink.com 1.10,2013-08-20 15:31:00,
2013-08-20 17:46:00,63.9,53.0,30.26,NW,317,0.0,1.0,67,0.00,,,0.01,88,weatherlink.com 1.10,2013-08-20 15:46:00,
2013-08-20 18:01:00,64.1,53.0,30.26,WNW,284,0.0,0.0,68,0.00,,,0.01,97,weatherlink.com 1.10,2013-08-20 16:01:00,
2013-08-20 18:16:00,64.0,53.0,30.26,West,263,0.0,0.0,68,0.00,,,0.01,67,weatherlink.com 1.10,2013-08-20 16:16:00,
2013-08-20 18:31:00,63.8,55.0,30.27,WSW,257,0.0,0.0,73,0.00,,,0.01,86,weatherlink.com 1.10,2013-08-20 16:31:00,
2013-08-20 18:46:00,63.4,56.0,30.27,NE,36,0.0,0.0,77,0.00,,,0.01,14,weatherlink.com 1.10,2013-08-20 16:46:00,
2013-08-20 19:02:00,61.3,55.0,30.27,SE,145,0.0,1.0,79,0.00,,,0.01,65,weatherlink.com 1.10,2013-08-20 17:02:00,
2013-08-20 19:16:00,59.6,56.0,30.28,SE,145,0.0,0.0,86,0.01,,,0.02,33,weatherlink.com 1.10,2013-08-20 17:16:00,
2013-08-20 19:31:00,59.0,56.0,30.28,SE,145,0.0,0.0,88,0.01,,,0.02,14,weatherlink.com 1.10,2013-08-20 17:31:00,
2013-08-20 19:46:00,58.7,56.0,30.29,East,98,0.0,0.0,89,0.01,,,0.02,12,weatherlink.com 1.10,2013-08-20 17:46:00,
2013-08-20 20:01:00,58.3,55.0,30.29,East,98,0.0,-999.0,89,-99.99,,,0.02,0,weatherlink.com 1.10,2013-08-20 18:01:00,
2013-08-20 20:16:00,57.6,54.0,30.30,East,98,0.0,0.0,89,0.00,,,0.02,0,weatherlink.com 1.10,2013-08-20 18:16:00,
2013-08-20 20:31:00,56.8,54.0,30.30,East,98,0.0,0.0,90,0.00,,,0.02,0,weatherlink.com 1.10,2013-08-20 18:31:00,
2013-08-20 20:46:00,56.2,54.0,30.30,East,98,0.0,0.0,91,0.00,,,0.02,0,weatherlink.com 1.10,2013-08-20 18:46:00,
2013-08-20 21:01:00,55.5,53.0,30.30,East,98,0.0,0.0,92,0.00,,,0.02,0,weatherlink.com 1.10,2013-08-20 19:01:00,
2013-08-20 21:16:00,54.8,53.0,30.31,East,98,0.0,0.0,92,0.00,,,0.02,0,weatherlink.com 1.10,2013-08-20 19:16:00,
2013-08-20 21:32:00,54.2,52.0,30.31,East,98,0.0,0.0,93,0.00,,,0.02,0,weatherlink.com 1.10,2013-08-20 19:32:00,
2013-08-20 21:47:00,53.9,52.0,30.31,East,98,0.0,0.0,93,0.00,,,0.02,0,weatherlink.com 1.10,2013-08-20 19:47:00,
2013-08-20 22:02:00,53.7,52.0,30.31,East,98,0.0,0.0,94,0.00,,,0.02,0,weatherlink.com 1.10,2013-08-20 20:02:00,
2013-08-20 22:17:00,53.5,52.0,30.32,East,98,0.0,0.0,94,0.00,,,0.02,0,weatherlink.com 1.10,2013-08-20 20:17:00,
2013-08-20 22:32:00,53.3,52.0,30.32,SSE,151,0.0,1.0,95,0.00,,,0.02,0,weatherlink.com 1.10,2013-08-20 20:32:00,
2013-08-20 22:47:00,53.1,52.0,30.32,SSE,151,0.0,0.0,95,0.00,,,0.02,0,weatherlink.com 1.10,2013-08-20 20:47:00,
2013-08-20 23:02:00,52.9,52.0,30.32,SSE,153,0.0,0.0,95,0.00,,,0.02,0,weatherlink.com 1.10,2013-08-20 21:02:00,
2013-08-20 23:17:00,52.7,51.0,30.32,SSE,153,0.0,0.0,95,0.00,,,0.02,0,weatherlink.com 1.10,2013-08-20 21:17:00,
2013-08-20 23:32:00,52.3,51.0,30.32,SSE,153,0.0,0.0,95,0.00,,,0.02,0,weatherlink.com 1.10,2013-08-20 21:32:00,
2013-08-20 23:47:00,52.1,51.0,30.32,SSE,153,0.0,0.0,96,0.00,,,0.02,0,weatherlink.com 1.10,2013-08-20 21:47:00,